Time;durP1;ratioP1;P1;durP2;ratioP2;P2;SDS_P1;SDS_P2;PMS_P1;PMS_P2;Temp;Humidity;BMP_temperature;BMP_pressure;BME280_temperature;BME280_humidity;BME280_pressure;Samples;Min_cycle;Max_cycle;Signal;HPM_P1;HPM_P2
2022/03/28 00:00:27;;;;;;;24.75;10.75;;;;;;;6.11;91.13;102537.75;5241452;28;20480;-66
2022/03/28 00:02:58;;;;;;;25.35;11.60;;;;;;;6.09;91.32;102543.94;5241132;28;20029;-66
2022/03/28 00:05:30;;;;;;;22.27;10.13;;;;;;;6.10;91.32;102542.19;5241384;28;20090;-66
2022/03/28 00:08:01;;;;;;;24.67;11.25;;;;;;;6.09;91.61;102546.59;5244756;28;20060;-66
2022/03/28 00:10:33;;;;;;;21.08;10.43;;;;;;;6.06;92.22;102535.25;5237877;28;20029;-66
2022/03/28 00:13:05;;;;;;;23.83;10.65;;;;;;;5.96;91.30;102533.78;5234882;28;20060;-66
2022/03/28 00:15:36;;;;;;;26.88;11.25;;;;;;;5.87;92.14;102524.31;5232916;28;20281;-66
2022/03/28 00:18:09;;;;;;;29.65;11.55;;;;;;;5.82;91.44;102521.78;5253132;28;20060;-66
2022/03/28 00:20:41;;;;;;;23.50;10.88;;;;;;;5.89;92.37;102511.88;5251616;28;20052;-66
2022/03/28 00:23:13;;;;;;;24.02;11.77;;;;;;;5.77;92.10;102515.78;5249030;28;20029;-66
2022/03/28 00:25:45;;;;;;;22.92;11.90;;;;;;;5.80;92.31;102512.16;5244979;28;20071;-66
2022/03/28 00:28:17;;;;;;;27.45;11.80;;;;;;;5.74;92.73;102507.91;5247797;28;20040;-67
2022/03/28 00:30:48;;;;;;;26.48;11.07;;;;;;;5.77;93.69;102505.16;5247286;28;21147;-66
2022/03/28 00:33:19;;;;;;;22.17;11.00;;;;;;;5.73;93.55;102503.50;5242944;28;20088;-66
2022/03/28 00:35:51;;;;;;;27.40;10.98;;;;;;;5.59;92.88;102495.97;5245471;28;20482;-66
2022/03/28 00:38:22;;;;;;;23.80;10.80;;;;;;;5.65;92.89;102490.50;5252174;28;20033;-66
2022/03/28 00:40:53;;;;;;;25.05;10.27;;;;;;;5.53;92.34;102490.00;5241848;28;20041;-66
2022/03/28 00:43:26;;;;;;;24.08;11.00;;;;;;;5.52;92.90;102482.94;5242313;28;20104;-66
2022/03/28 00:45:57;;;;;;;26.08;10.98;;;;;;;5.56;92.51;102488.13;5250435;28;20025;-66
2022/03/28 00:48:29;;;;;;;22.80;10.70;;;;;;;5.53;92.88;102485.56;5252807;28;20037;-66
2022/03/28 00:51:01;;;;;;;26.33;10.90;;;;;;;5.57;93.59;102476.59;5245647;28;20083;-66
2022/03/28 00:53:33;;;;;;;25.40;11.27;;;;;;;5.50;94.72;102488.28;5250881;28;20112;-66
2022/03/28 00:56:05;;;;;;;22.77;10.50;;;;;;;5.47;94.67;102480.44;5245431;28;20478;-66
2022/03/28 00:58:36;;;;;;;23.30;10.60;;;;;;;5.47;95.14;102477.81;5251879;28;20033;-66
2022/03/28 01:01:09;;;;;;;26.85;11.57;;;;;;;5.33;94.17;102472.03;5245959;28;20055;-66
2022/03/28 01:03:41;;;;;;;25.45;10.13;;;;;;;5.30;94.01;102468.56;5251236;28;20029;-66
2022/03/28 01:06:13;;;;;;;25.02;10.68;;;;;;;5.28;93.46;102466.88;5246387;28;20053;-66
2022/03/28 01:08:44;;;;;;;23.70;10.57;;;;;;;5.28;94.43;102458.94;5243871;28;20036;-66
2022/03/28 01:11:17;;;;;;;25.75;10.50;;;;;;;5.28;94.07;102458.94;5248086;28;20063;-66
2022/03/28 01:13:49;;;;;;;23.25;10.65;;;;;;;5.25;93.95;102454.59;5246321;28;20033;-66
2022/03/28 01:16:20;;;;;;;25.90;12.13;;;;;;;5.15;94.18;102455.75;5248465;28;20110;-66
2022/03/28 01:18:52;;;;;;;20.70;10.38;;;;;;;5.25;95.87;102457.25;5250060;28;20052;-66
2022/03/28 01:21:23;;;;;;;23.10;10.70;;;;;;;5.26;96.01;102443.09;5248445;28;20712;-66
2022/03/28 01:23:54;;;;;;;23.85;9.70;;;;;;;5.15;96.73;102446.97;5247484;28;20025;-66
2022/03/28 01:26:26;;;;;;;23.85;11.52;;;;;;;5.03;95.09;102450.81;5248719;28;20039;-66
2022/03/28 01:28:58;;;;;;;24.67;10.60;;;;;;;5.15;94.91;102447.81;5238379;28;20445;-66
2022/03/28 01:31:29;;;;;;;25.20;11.70;;;;;;;5.07;96.98;102433.94;5234473;28;20029;-66
2022/03/28 01:34:01;;;;;;;23.17;10.88;;;;;;;5.00;95.97;102432.38;5233546;28;20061;-66
2022/03/28 01:36:32;;;;;;;20.45;9.77;;;;;;;5.04;95.42;102432.25;5231503;28;20475;-66
2022/03/28 01:39:03;;;;;;;22.33;10.07;;;;;;;5.03;95.92;102429.66;5245390;28;20411;-66
2022/03/28 01:41:35;;;;;;;26.08;11.30;;;;;;;4.93;96.16;102436.06;5249536;28;20059;-66
2022/03/28 01:44:07;;;;;;;23.05;10.85;;;;;;;4.90;96.08;102423.81;5250948;28;20313;-66
2022/03/28 01:46:47;;;;;;;24.67;10.55;;;;;;;4.95;96.82;102431.63;5237127;28;20047;-66
2022/03/28 01:49:19;;;;;;;27.30;10.30;;;;;;;4.94;96.84;102427.25;5246684;28;20160;-66
2022/03/28 01:51:51;;;;;;;24.08;10.57;;;;;;;4.93;97.27;102428.16;5232587;28;20657;-66
2022/03/28 01:54:22;;;;;;;23.90;10.63;;;;;;;4.81;97.42;102427.56;5234577;28;20033;-66
2022/03/28 01:56:53;;;;;;;26.98;10.25;;;;;;;4.88;96.61;102429.16;5233785;28;20060;-66
2022/03/28 01:59:25;;;;;;;28.40;10.10;;;;;;;4.84;96.07;102435.44;5232609;28;20577;-66
2022/03/28 02:01:56;;;;;;;21.58;10.50;;;;;;;4.82;96.21;102431.97;5232197;28;20475;-66
2022/03/28 02:04:27;;;;;;;26.88;10.90;;;;;;;4.82;96.22;102421.38;5234751;28;20029;-66
2022/03/28 02:06:59;;;;;;;28.33;11.00;;;;;;;4.67;95.87;102421.78;5232761;28;20035;-66
2022/03/28 02:09:30;;;;;;;22.25;10.15;;;;;;;4.68;96.23;102418.25;5234137;28;20021;-66
2022/03/28 02:12:01;;;;;;;20.58;10.18;;;;;;;4.69;96.33;102406.75;5233217;28;20077;-67
2022/03/28 02:14:32;;;;;;;25.20;10.32;;;;;;;4.70;97.41;102405.88;5233441;28;20911;-66
2022/03/28 02:17:04;;;;;;;25.00;10.45;;;;;;;4.67;96.75;102419.16;5233344;28;20048;-66
2022/03/28 02:19:35;;;;;;;21.13;10.60;;;;;;;4.68;97.13;102412.97;5238346;28;20082;-66
2022/03/28 02:22:07;;;;;;;24.40;10.98;;;;;;;4.55;97.36;102412.41;5245059;28;20222;-66
2022/03/28 02:24:39;;;;;;;24.20;10.20;;;;;;;4.55;97.38;102404.47;5234874;28;20455;-66
2022/03/28 02:27:10;;;;;;;27.10;12.00;;;;;;;4.45;97.23;102398.56;5251298;28;20091;-66
2022/03/28 02:29:41;;;;;;;24.42;10.88;;;;;;;4.41;97.31;102399.56;5241548;28;20044;-66
2022/03/28 02:32:13;;;;;;;28.85;10.38;;;;;;;4.41;98.10;102396.91;5235317;28;20087;-66
2022/03/28 02:34:44;;;;;;;31.33;10.73;;;;;;;4.34;98.36;102387.41;5243810;28;20049;-66
2022/03/28 02:37:16;;;;;;;22.02;10.43;;;;;;;4.33;98.64;102390.94;5233199;28;20043;-66
2022/03/28 02:39:47;;;;;;;19.75;10.07;;;;;;;4.28;98.27;102392.84;5234091;28;20029;-66
2022/03/28 02:42:22;;;;;;;26.83;11.05;;;;;;;4.26;98.75;102382.31;5235047;28;20032;-66
2022/03/28 02:44:53;;;;;;;;;;;;;;;4.33;96.93;102372.44;5236953;28;20035;-66
2022/03/28 02:47:25;;;;;;;20.05;10.25;;;;;;;4.28;98.21;102383.13;5234168;28;20333;-66
2022/03/28 02:49:57;;;;;;;28.58;10.60;;;;;;;4.34;98.72;102376.84;5231324;28;20036;-66
2022/03/28 02:52:28;;;;;;;30.13;10.88;;;;;;;4.28;98.49;102366.44;5234210;28;20064;-66
2022/03/28 02:54:59;;;;;;;29.40;11.25;;;;;;;4.31;99.91;102368.97;5232659;28;20609;-66
2022/03/28 02:57:30;;;;;;;29.95;11.82;;;;;;;4.32;100.00;102370.72;5239454;28;20043;-66
2022/03/28 03:00:07;;;;;;;34.53;11.15;;;;;;;4.25;100.00;102370.00;5238101;28;20376;-66
2022/03/28 03:02:40;;;;;;;23.98;11.20;;;;;;;4.31;100.00;102366.34;5232622;28;20748;-66
2022/03/28 03:05:12;;;;;;;24.05;10.82;;;;;;;4.26;100.00;102362.97;5242952;28;20021;-66
2022/03/28 03:07:43;;;;;;;24.88;11.00;;;;;;;4.24;100.00;102359.50;5238363;28;20041;-66
2022/03/28 03:10:15;;;;;;;25.70;10.60;;;;;;;4.18;99.81;102362.25;5232240;28;20079;-66
2022/03/28 03:12:46;;;;;;;25.00;10.27;;;;;;;4.12;99.52;102360.66;5238225;28;20029;-66
2022/03/28 03:15:17;;;;;;;20.35;10.10;;;;;;;4.11;99.49;102356.28;5231566;28;20053;-66
2022/03/28 03:17:48;;;;;;;25.48;10.73;;;;;;;4.16;99.83;102349.13;5233290;28;20075;-66
2022/03/28 03:20:20;;;;;;;21.10;9.80;;;;;;;4.19;99.72;102349.03;5234261;28;20055;-66
2022/03/28 03:22:51;;;;;;;26.23;11.07;;;;;;;4.12;99.67;102344.78;5242491;28;20028;-66
2022/03/28 03:25:22;;;;;;;22.45;10.23;;;;;;;4.06;99.84;102348.47;5233688;28;20029;-66
2022/03/28 03:27:54;;;;;;;24.63;10.55;;;;;;;4.05;99.75;102352.03;5233694;28;20449;-66
2022/03/28 03:30:25;;;;;;;21.73;10.95;;;;;;;3.97;99.75;102353.09;5232384;28;20025;-66
2022/03/28 03:32:57;;;;;;;21.25;10.20;;;;;;;3.93;100.00;102347.03;5233783;28;20036;-66
2022/03/28 03:35:29;;;;;;;27.48;10.85;;;;;;;3.99;100.00;102344.25;5230574;28;20037;-66
2022/03/28 03:38:00;;;;;;;25.42;12.38;;;;;;;3.99;100.00;102338.09;5233332;28;20435;-66
2022/03/28 03:40:32;;;;;;;27.23;11.23;;;;;;;3.95;100.00;102334.69;5232366;28;20104;-66
2022/03/28 03:43:03;;;;;;;33.83;11.13;;;;;;;3.98;100.00;102331.09;5233337;28;20111;-66
2022/03/28 03:45:36;;;;;;;25.40;10.82;;;;;;;4.01;100.00;102333.63;5238708;28;20033;-66
2022/03/28 03:48:08;;;;;;;34.20;12.60;;;;;;;3.96;100.00;102332.91;5234197;28;20613;-66
2022/03/28 03:50:41;;;;;;;29.83;12.60;;;;;;;3.97;100.00;102330.22;5232004;28;20398;-66
2022/03/28 03:53:13;;;;;;;29.92;12.15;;;;;;;4.04;100.00;102325.66;5239178;28;20433;-66
2022/03/28 03:55:46;;;;;;;30.73;12.43;;;;;;;4.06;100.00;102319.41;5233470;28;20075;-66
2022/03/28 03:58:17;;;;;;;31.38;11.35;;;;;;;4.08;100.00;102312.31;5236902;28;20423;-66
2022/03/28 04:00:48;;;;;;;30.10;12.30;;;;;;;4.11;100.00;102311.38;5235866;28;20354;-66
2022/03/28 04:03:20;;;;;;;34.15;12.20;;;;;;;4.09;100.00;102310.56;5236627;28;20075;-66
2022/03/28 04:05:51;;;;;;;33.67;11.07;;;;;;;4.11;100.00;102314.03;5239450;28;20039;-66
2022/03/28 04:08:22;;;;;;;29.42;11.70;;;;;;;4.13;100.00;102312.22;5243451;28;20151;-66
2022/03/28 04:10:54;;;;;;;32.72;12.15;;;;;;;4.08;100.00;102307.03;5237044;28;20039;-66
2022/03/28 04:13:26;;;;;;;28.48;11.38;;;;;;;4.03;100.00;102305.44;5234733;28;20688;-66
2022/03/28 04:15:57;;;;;;;29.67;11.65;;;;;;;4.05;100.00;102299.19;5238406;28;20548;-66
2022/03/28 04:18:29;;;;;;;29.77;11.73;;;;;;;4.04;100.00;102299.22;5243279;28;20336;-66
2022/03/28 04:21:01;;;;;;;28.02;11.23;;;;;;;4.05;100.00;102301.84;5247188;28;20446;-66
2022/03/28 04:23:32;;;;;;;27.30;11.50;;;;;;;4.01;100.00;102308.13;5243975;28;20033;-66
2022/03/28 04:26:03;;;;;;;29.38;11.63;;;;;;;4.09;100.00;102297.34;5240168;28;20098;-66
2022/03/28 04:28:36;;;;;;;29.10;11.70;;;;;;;3.97;100.00;102302.94;5234004;28;20033;-66
2022/03/28 04:31:07;;;;;;;29.48;11.65;;;;;;;3.92;100.00;102301.28;5236705;28;20197;-66
2022/03/28 04:33:38;;;;;;;26.63;10.10;;;;;;;4.01;100.00;102305.47;5235562;28;20029;-66
2022/03/28 04:36:10;;;;;;;27.70;11.82;;;;;;;3.90;100.00;102304.88;5237356;28;20071;-66
2022/03/28 04:38:41;;;;;;;23.92;11.05;;;;;;;3.80;100.00;102298.97;5235416;28;20086;-66
2022/03/28 04:41:12;;;;;;;24.90;11.20;;;;;;;3.76;100.00;102301.69;5233586;28;20033;-66
2022/03/28 04:43:43;;;;;;;23.00;10.63;;;;;;;3.77;100.00;102304.31;5235850;28;20311;-66
2022/03/28 04:46:15;;;;;;;30.45;11.85;;;;;;;3.69;100.00;102303.63;5235473;28;20060;-66
2022/03/28 04:48:47;;;;;;;21.40;9.82;;;;;;;3.65;100.00;102304.63;5237104;28;20035;-66
2022/03/28 04:51:18;;;;;;;23.83;10.40;;;;;;;3.55;100.00;102290.78;5237998;28;20029;-66
2022/03/28 04:53:49;;;;;;;27.15;11.55;;;;;;;3.57;100.00;102298.63;5242215;28;20056;-66
2022/03/28 04:56:21;;;;;;;24.45;10.98;;;;;;;3.60;100.00;102299.41;5237569;28;20033;-66
2022/03/28 04:58:52;;;;;;;25.75;11.27;;;;;;;3.58;100.00;102308.28;5238651;28;20147;-67
2022/03/28 05:01:23;;;;;;;26.25;10.60;;;;;;;3.53;100.00;102300.50;5244797;28;20033;-66
2022/03/28 05:03:54;;;;;;;25.95;10.68;;;;;;;3.61;100.00;102301.16;5246043;28;20021;-66
2022/03/28 05:06:26;;;;;;;24.33;9.88;;;;;;;3.56;100.00;102305.69;5241731;28;20029;-66
2022/03/28 05:08:57;;;;;;;25.55;10.30;;;;;;;3.53;100.00;102309.28;5253266;28;20068;-66
2022/03/28 05:11:30;;;;;;;28.52;10.65;;;;;;;3.43;100.00;102306.88;5251877;28;20363;-66
2022/03/28 05:14:02;;;;;;;31.98;11.85;;;;;;;3.40;100.00;102305.19;5249740;28;20029;-66
2022/03/28 05:16:33;;;;;;;30.17;10.85;;;;;;;3.34;100.00;102297.41;5250648;28;20217;-66
2022/03/28 05:19:04;;;;;;;28.20;11.05;;;;;;;3.40;100.00;102302.53;5247479;28;20132;-66
2022/03/28 05:21:36;;;;;;;28.42;11.98;;;;;;;3.33;100.00;102301.81;5248783;28;20111;-66
2022/03/28 05:24:07;;;;;;;23.90;10.50;;;;;;;3.40;100.00;102306.97;5248241;28;20044;-67
2022/03/28 05:26:38;;;;;;;27.58;10.85;;;;;;;3.34;100.00;102298.28;5250928;28;20032;-66
2022/03/28 05:29:10;;;;;;;32.33;11.32;;;;;;;3.32;100.00;102297.44;5248928;28;20164;-66
2022/03/28 05:31:41;;;;;;;35.85;12.52;;;;;;;3.29;100.00;102299.28;5251102;28;20421;-66
2022/03/28 05:34:13;;;;;;;36.80;11.20;;;;;;;3.33;100.00;102300.94;5251783;28;20037;-66
2022/03/28 05:36:45;;;;;;;34.10;11.35;;;;;;;3.32;100.00;102301.88;5251251;28;20449;-66
2022/03/28 05:39:16;;;;;;;31.52;11.27;;;;;;;3.29;100.00;102294.00;5248573;28;20087;-66
2022/03/28 05:41:47;;;;;;;34.20;11.50;;;;;;;3.24;100.00;102296.75;5251995;28;20032;-66
2022/03/28 05:44:20;;;;;;;41.95;12.00;;;;;;;3.22;100.00;102306.47;5250195;28;20108;-66
2022/03/28 05:46:51;;;;;;;39.22;11.82;;;;;;;3.33;100.00;102295.66;5244112;28;20155;-66
2022/03/28 05:49:22;;;;;;;33.15;11.95;;;;;;;3.27;100.00;102290.53;5243053;28;20033;-66
2022/03/28 05:51:54;;;;;;;33.00;12.52;;;;;;;3.31;100.00;102281.66;5241432;28;20163;-66
2022/03/28 05:54:25;;;;;;;38.22;11.13;;;;;;;3.32;100.00;102288.66;5243574;28;20029;-66
2022/03/28 05:56:56;;;;;;;30.02;10.70;;;;;;;3.25;100.00;102282.66;5247274;28;20075;-66
2022/03/28 05:59:28;;;;;;;33.75;12.20;;;;;;;3.32;100.00;102275.47;5259197;28;20060;-66
2022/03/28 06:01:59;;;;;;;32.38;11.20;;;;;;;3.33;100.00;102278.06;5246634;28;20033;-66
2022/03/28 06:04:30;;;;;;;34.55;11.40;;;;;;;3.45;100.00;102276.03;5257888;28;20036;-66
2022/03/28 06:07:02;;;;;;;31.55;11.32;;;;;;;3.54;100.00;102273.19;5258377;28;20403;-66
2022/03/28 06:09:33;;;;;;;34.10;11.95;;;;;;;3.59;100.00;102275.72;5260869;28;20508;-66
2022/03/28 06:12:05;;;;;;;30.98;11.27;;;;;;;3.54;100.00;102279.31;5255064;28;20509;-66
2022/03/28 06:14:36;;;;;;;33.10;13.23;;;;;;;3.60;100.00;102282.72;5246344;28;20035;-66
2022/03/28 06:17:07;;;;;;;33.08;12.15;;;;;;;3.61;100.00;102289.75;5247140;28;20041;-66
2022/03/28 06:19:38;;;;;;;35.92;12.63;;;;;;;3.70;100.00;102282.47;5252684;28;20066;-66
2022/03/28 06:22:09;;;;;;;37.47;12.93;;;;;;;3.80;100.00;102280.47;5248276;28;20083;-66
2022/03/28 06:24:41;;;;;;;31.77;11.85;;;;;;;3.86;100.00;102284.75;5252603;28;20017;-66
2022/03/28 06:27:12;;;;;;;39.17;12.63;;;;;;;3.86;100.00;102280.31;5239032;28;20088;-67
2022/03/28 06:29:43;;;;;;;32.38;12.00;;;;;;;3.95;100.00;102281.88;5247837;28;20104;-66
2022/03/28 06:32:15;;;;;;;32.42;12.30;;;;;;;3.99;100.00;102277.34;5250701;28;20094;-66
2022/03/28 06:34:48;;;;;;;34.97;12.13;;;;;;;4.04;100.00;102270.19;5244424;28;20025;-66
2022/03/28 06:37:23;;;;;;;33.10;12.35;;;;;;;4.12;100.00;102274.38;5249565;28;20052;-66
2022/03/28 06:39:54;;;;;;;34.92;13.18;;;;;;;4.20;100.00;102279.44;5236783;28;20095;-66
2022/03/28 06:42:26;;;;;;;41.60;12.32;;;;;;;4.21;100.00;102280.31;5236595;28;20033;-66
2022/03/28 06:44:57;;;;;;;35.20;12.75;;;;;;;4.23;100.00;102278.50;5239976;28;20073;-66
2022/03/28 06:47:28;;;;;;;39.85;12.48;;;;;;;4.28;100.00;102281.88;5244867;28;20028;-66
2022/03/28 06:50:00;;;;;;;36.47;12.75;;;;;;;4.30;100.00;102280.06;5249055;28;20041;-66
2022/03/28 06:52:33;;;;;;;35.50;12.43;;;;;;;4.37;100.00;102281.59;5237454;28;20071;-66
2022/03/28 06:55:05;;;;;;;38.63;13.77;;;;;;;4.42;100.00;102279.72;5238768;28;20171;-66
2022/03/28 06:57:37;;;;;;;34.83;14.05;;;;;;;4.46;100.00;102276.06;5249865;28;20021;-66
2022/03/28 07:00:12;;;;;;;34.42;13.85;;;;;;;4.52;100.00;102275.03;5245198;28;20036;-66
2022/03/28 07:02:44;;;;;;;36.90;13.18;;;;;;;4.59;100.00;102255.47;5239021;28;20063;-66
2022/03/28 07:05:15;;;;;;;32.28;13.02;;;;;;;4.64;100.00;102258.84;5235741;28;20468;-66
2022/03/28 07:07:50;;;;;;;32.88;13.02;;;;;;;4.76;100.00;102264.69;5235858;28;21322;-66
2022/03/28 07:10:21;;;;;;;36.55;13.25;;;;;;;4.81;100.00;102262.75;5234222;28;20036;-66
2022/03/28 07:12:54;;;;;;;38.45;14.52;;;;;;;4.89;100.00;102263.41;5235630;28;20024;-66
2022/03/28 07:15:27;;;;;;;37.58;13.98;;;;;;;4.98;100.00;102265.75;5234282;28;20519;-65
2022/03/28 07:18:02;;;;;;;38.90;13.32;;;;;;;5.00;100.00;102257.78;5242036;28;20508;-67
2022/03/28 07:20:36;;;;;;;34.45;14.38;;;;;;;5.11;100.00;102251.25;5238468;28;20025;-66
2022/03/28 07:23:09;;;;;;;36.20;13.88;;;;;;;5.18;100.00;102254.59;5239476;28;20057;-66
2022/03/28 07:25:41;;;;;;;39.30;14.80;;;;;;;5.19;100.00;102251.00;5239347;28;20455;-67
2022/03/28 07:28:14;;;;;;;38.38;13.52;;;;;;;5.29;100.00;102257.75;5244130;28;20654;-66
2022/03/28 07:30:46;;;;;;;42.70;15.57;;;;;;;5.36;100.00;102245.19;5238168;28;20124;-66
2022/03/28 07:33:17;;;;;;;44.65;16.15;;;;;;;5.50;100.00;102247.38;5251578;28;20530;-66
2022/03/28 07:35:48;;;;;;;42.63;15.43;;;;;;;5.55;100.00;102244.59;5237198;28;20037;-66
2022/03/28 07:38:19;;;;;;;33.53;15.32;;;;;;;5.57;100.00;102243.63;5243811;28;20048;-66
2022/03/28 07:40:51;;;;;;;41.35;15.60;;;;;;;5.76;100.00;102232.44;5242373;28;20033;-66
2022/03/28 07:43:22;;;;;;;38.40;15.45;;;;;;;5.82;100.00;102237.50;5242763;28;20098;-66
2022/03/28 07:45:54;;;;;;;42.08;17.05;;;;;;;5.89;100.00;102231.94;5242721;28;20029;-66
2022/03/28 07:48:27;;;;;;;41.95;16.08;;;;;;;6.03;100.00;102225.34;5242791;28;20040;-67
2022/03/28 07:50:58;;;;;;;37.95;15.85;;;;;;;6.19;100.00;102218.56;5247457;28;20033;-66
2022/03/28 07:53:29;;;;;;;39.08;15.93;;;;;;;6.23;100.00;102211.38;5247165;28;20069;-66
2022/03/28 07:56:01;;;;;;;38.47;16.92;;;;;;;6.28;100.00;102225.31;5250138;28;20062;-66
2022/03/28 07:58:34;;;;;;;39.85;15.77;;;;;;;6.34;100.00;102229.53;5245732;28;20579;-66
2022/03/28 08:01:05;;;;;;;42.95;16.13;;;;;;;6.40;100.00;102224.84;5244110;28;20364;-66
2022/03/28 08:03:36;;;;;;;38.58;16.67;;;;;;;6.50;100.00;102219.22;5246809;28;20076;-66
2022/03/28 08:06:08;;;;;;;34.85;15.93;;;;;;;6.56;100.00;102214.56;5245776;28;20067;-66
2022/03/28 08:08:39;;;;;;;37.85;16.17;;;;;;;6.68;100.00;102210.59;5243420;28;20036;-66
2022/03/28 08:11:11;;;;;;;35.60;16.10;;;;;;;6.83;100.00;102217.94;5240197;28;20048;-66
2022/03/28 08:13:42;;;;;;;37.20;15.85;;;;;;;6.89;100.00;102227.47;5247798;28;20037;-66
2022/03/28 08:16:14;;;;;;;39.22;16.50;;;;;;;6.97;100.00;102213.91;5246696;28;20053;-66
2022/03/28 08:18:45;;;;;;;34.97;15.90;;;;;;;7.16;100.00;102206.94;5257538;28;20026;-66
2022/03/28 08:21:16;;;;;;;30.20;15.60;;;;;;;7.22;100.00;102203.16;5250244;28;20027;-66
2022/03/28 08:23:47;;;;;;;39.35;17.05;;;;;;;7.33;100.00;102192.13;5248457;28;20082;-66
2022/03/28 08:26:19;;;;;;;39.50;17.80;;;;;;;7.43;100.00;102201.41;5252573;28;20528;-66
2022/03/28 08:28:50;;;;;;;41.00;17.25;;;;;;;7.46;100.00;102202.16;5241629;28;20491;-66
2022/03/28 08:31:21;;;;;;;38.90;17.83;;;;;;;7.57;100.00;102203.50;5252662;28;20029;-66
2022/03/28 08:33:52;;;;;;;36.83;17.08;;;;;;;7.63;99.96;102190.84;5240897;28;20029;-66
2022/03/28 08:36:24;;;;;;;32.53;17.02;;;;;;;7.70;99.41;102195.88;5244543;28;20493;-66
2022/03/28 08:38:55;;;;;;;36.45;16.85;;;;;;;7.93;98.41;102189.56;5253993;28;20094;-66
2022/03/28 08:41:27;;;;;;;37.13;17.27;;;;;;;8.12;97.35;102192.28;5250340;28;20033;-66
2022/03/28 08:43:59;;;;;;;36.53;17.42;;;;;;;8.13;96.77;102194.88;5243806;28;20051;-66
2022/03/28 08:46:30;;;;;;;40.50;17.98;;;;;;;8.40;96.09;102186.59;5253782;28;20039;-66
2022/03/28 08:49:02;;;;;;;40.40;18.67;;;;;;;8.39;94.64;102198.16;5249209;28;20034;-66
2022/03/28 08:51:33;;;;;;;35.13;16.88;;;;;;;8.52;94.62;102186.03;5245241;28;20037;-66
2022/03/28 08:54:04;;;;;;;37.05;18.30;;;;;;;8.54;94.43;102183.31;5246233;28;20144;-66
2022/03/28 08:56:36;;;;;;;32.83;17.92;;;;;;;8.73;95.13;102181.53;5248373;28;20037;-66
2022/03/28 08:59:07;;;;;;;38.50;17.92;;;;;;;8.81;94.74;102187.31;5244890;28;20044;-66
2022/03/28 09:01:39;;;;;;;39.63;19.45;;;;;;;9.00;93.30;102184.66;5242102;28;20021;-66
2022/03/28 09:04:10;;;;;;;41.67;19.63;;;;;;;9.21;91.95;102179.22;5237150;28;20032;-66
2022/03/28 09:06:44;;;;;;;38.13;19.45;;;;;;;9.37;91.41;102184.66;5243035;28;20037;-66
2022/03/28 09:09:31;;;;;;;41.72;19.65;;;;;;;9.56;90.26;102187.25;5241774;28;20112;-66
2022/03/28 09:12:08;;;;;;;42.78;20.25;;;;;;;9.56;89.22;102187.25;5242500;28;20395;-66
2022/03/28 09:14:40;;;;;;;40.50;21.60;;;;;;;9.75;87.56;102179.19;5242975;28;20478;-66
2022/03/28 09:17:15;;;;;;;40.08;21.10;;;;;;;9.79;87.80;102181.59;5252738;28;20074;-66
2022/03/28 09:19:55;;;;;;;;;;;;;;;9.72;91.29;102168.66;5247813;28;20075;-66
2022/03/28 09:22:31;;;;;;;42.83;19.98;;;;;;;9.98;88.39;102178.81;5248467;28;20651;-66
2022/03/28 09:25:06;;;;;;;34.90;19.42;;;;;;;10.17;86.73;102175.19;5245511;28;20053;-66
2022/03/28 09:27:40;;;;;;;38.08;20.55;;;;;;;10.26;86.75;102173.81;5250664;28;20064;-66
2022/03/28 09:30:16;;;;;;;38.60;19.55;;;;;;;10.53;84.90;102168.84;5240870;28;20480;-66
2022/03/28 09:32:52;;;;;;;37.50;19.30;;;;;;;10.50;84.45;102174.34;5238983;28;20037;-66
2022/03/28 09:35:26;;;;;;;39.17;18.55;;;;;;;10.54;84.79;102165.22;5241729;28;20033;-66
2022/03/28 09:38:01;;;;;;;38.17;19.57;;;;;;;10.81;85.28;102168.16;5237516;28;20037;-66
2022/03/28 09:40:39;;;;;;;32.60;17.35;;;;;;;10.74;84.78;102159.66;5243363;28;20112;-66
2022/03/28 09:43:16;;;;;;;36.45;19.70;;;;;;;11.00;83.19;102157.28;5245492;28;20448;-67
2022/03/28 09:45:50;;;;;;;32.88;18.73;;;;;;;10.91;83.21;102150.69;5242791;28;20543;-66
2022/03/28 09:48:26;;;;;;;38.87;18.87;;;;;;;11.12;82.76;102145.91;5250951;28;20036;-66
2022/03/28 09:51:01;;;;;;;36.88;19.38;;;;;;;11.32;82.16;102151.91;5240132;28;20748;-66
2022/03/28 09:53:35;;;;;;;;;;;;;;;11.25;83.17;102147.88;5245112;28;20104;-66
2022/03/28 09:56:09;;;;;;;41.42;19.52;;;;;;;11.50;80.94;102141.94;5242276;28;19972;-66
2022/03/28 09:58:56;;;;;;;40.70;20.67;;;;;;;11.69;78.53;102147.03;5249202;28;20120;-66
2022/03/28 10:01:35;;;;;;;36.90;20.92;;;;;;;11.61;78.37;102135.94;5242036;28;20068;-66
2022/03/28 10:04:09;;;;;;;35.78;21.25;;;;;;;11.93;75.72;102137.56;5248714;28;20033;-66
2022/03/28 10:06:40;;;;;;;40.35;21.23;;;;;;;12.07;73.78;102134.03;5250160;28;20090;-66
2022/03/28 10:09:12;;;;;;;34.83;20.30;;;;;;;11.99;74.18;102130.97;5244529;28;20037;-66
2022/03/28 10:11:43;;;;;;;36.00;21.00;;;;;;;11.98;75.55;102133.72;5246466;28;20031;-66
2022/03/28 10:14:17;;;;;;;39.38;21.63;;;;;;;11.99;73.19;102135.47;5244584;28;20112;-66
2022/03/28 10:16:49;;;;;;;41.00;22.95;;;;;;;12.12;74.02;102128.41;5243551;28;20060;-66
2022/03/28 10:19:20;;;;;;;38.33;21.60;;;;;;;12.31;74.79;102126.28;5241762;28;20041;-66
2022/03/28 10:21:52;;;;;;;37.20;20.92;;;;;;;12.58;72.42;102127.28;5253544;28;20075;-66
2022/03/28 10:24:29;;;;;;;39.72;21.65;;;;;;;12.62;72.53;102132.34;5240093;28;20112;-66
2022/03/28 10:27:02;;;;;;;37.67;21.13;;;;;;;12.66;72.25;102124.97;5237950;28;20214;-66
2022/03/28 10:29:36;;;;;;;33.30;20.48;;;;;;;12.82;70.75;102116.78;5250683;28;20032;-66
2022/03/28 10:32:12;;;;;;;;;;;;;;;12.77;76.03;102117.13;5243625;28;20585;-66
2022/03/28 10:34:52;;;;;;;31.88;19.33;;;;;;;12.81;70.80;102109.72;5242199;28;19920;-66
2022/03/28 10:37:40;;;;;;;29.98;19.38;;;;;;;12.86;71.47;102099.56;5245826;28;20056;-67
2022/03/28 10:40:35;;;;;;;33.88;20.05;;;;;;;12.94;71.40;102098.09;5243495;28;20029;-67
2022/03/28 10:43:12;;;;;;;34.30;20.23;;;;;;;13.12;69.86;102101.34;5242546;28;20082;-67
2022/03/28 10:45:49;;;;;;;35.88;20.55;;;;;;;13.14;69.98;102079.81;5239598;28;20480;-66
2022/03/28 10:48:39;;;;;;;36.50;20.08;;;;;;;13.16;69.36;102080.56;5244573;28;20683;-67
2022/03/28 10:51:15;;;;;;;35.97;19.25;;;;;;;13.27;68.15;102083.38;5242181;28;20087;-66
2022/03/28 10:54:09;;;;;;;33.15;20.52;;;;;;;13.44;65.19;102082.28;5242851;28;20029;-67
2022/03/28 10:56:45;;;;;;;34.23;19.93;;;;;;;13.33;65.51;102079.47;5246337;28;20030;-67
2022/03/28 10:59:21;;;;;;;33.35;19.92;;;;;;;13.57;63.71;102081.41;5250416;28;20337;-67
2022/03/28 11:01:52;;;;;;;35.10;20.40;;;;;;;13.50;65.98;102081.84;5247788;28;20493;-67
2022/03/28 11:04:24;;;;;;;34.03;19.65;;;;;;;13.70;63.98;102074.22;5243571;28;20022;-67
2022/03/28 11:07:05;;;;;;;33.75;20.08;;;;;;;13.66;63.49;102078.09;5250951;28;20032;-67
2022/03/28 11:09:51;;;;;;;35.75;20.15;;;;;;;13.84;61.54;102074.09;5245259;28;20171;-66
2022/03/28 11:12:40;;;;;;;30.48;19.73;;;;;;;13.76;62.55;102079.16;5243371;28;20033;-67
2022/03/28 11:15:11;;;;;;;27.83;17.85;;;;;;;13.66;62.68;102065.53;5243531;28;21277;-66
2022/03/28 11:18:02;;;;;;;30.15;18.05;;;;;;;13.71;63.63;102054.47;5245230;28;20500;-67
2022/03/28 11:20:48;;;;;;;30.52;18.25;;;;;;;13.89;62.91;102061.22;5246236;28;20119;-67
2022/03/28 11:23:20;;;;;;;30.75;18.15;;;;;;;13.81;59.87;102060.06;5246753;28;20885;-67
2022/03/28 11:25:53;;;;;;;28.55;16.88;;;;;;;13.88;60.06;102059.53;5244682;28;20361;-67
2022/03/28 11:28:27;;;;;;;30.00;18.50;;;;;;;14.09;59.12;102045.50;5245789;28;20021;-67
2022/03/28 11:31:10;;;;;;;27.88;17.35;;;;;;;13.96;61.83;102050.06;5244439;28;20545;-67
2022/03/28 11:33:47;;;;;;;27.13;17.38;;;;;;;14.07;60.04;102042.94;5245106;28;20029;-66
2022/03/28 11:36:20;;;;;;;28.90;19.48;;;;;;;13.90;61.03;102041.50;5243771;28;20124;-66
2022/03/28 11:38:55;;;;;;;31.70;18.50;;;;;;;14.01;61.24;102039.84;5243107;28;20056;-66